Time;durP1;ratioP1;P1;durP2;ratioP2;P2;SDS_P1;SDS_P2;PMS_P1;PMS_P2;Temp;Humidity;BMP_temperature;BMP_pressure;BME280_temperature;BME280_humidity;BME280_pressure;Samples;Min_cycle;Max_cycle;Signal;HPM_P1;HPM_P2
2022/05/23 00:00:39;;;;;;;11.48;3.40;;;13.10;99.90;;;;;;5035549;28;20048;-76
2022/05/23 00:03:07;;;;;;;9.10;3.13;;;13.10;99.90;;;;;;5017807;28;20053;-78
2022/05/23 00:05:34;;;;;;;10.48;3.38;;;13.10;99.90;;;;;;5016869;28;20053;-80
2022/05/23 00:08:03;;;;;;;8.93;3.42;;;13.10;99.90;;;;;;5035036;28;20048;-82
2022/05/23 00:10:30;;;;;;;9.93;3.35;;;13.10;99.90;;;;;;5017805;28;20042;-79
2022/05/23 00:12:58;;;;;;;12.15;3.28;;;13.20;99.90;;;;;;5034103;28;20045;-79
2022/05/23 00:15:25;;;;;;;10.40;2.90;;;13.30;99.90;;;;;;5035047;28;20053;-79
2022/05/23 00:17:54;;;;;;;9.00;3.25;;;13.40;99.90;;;;;;5016410;28;20060;-77
2022/05/23 00:20:23;;;;;;;8.63;3.47;;;13.50;99.90;;;;;;5017604;28;20060;-78
2022/05/23 00:22:51;;;;;;;8.23;3.20;;;13.60;99.90;;;;;;5034763;28;20053;-81
2022/05/23 00:25:20;;;;;;;13.43;3.28;;;13.70;99.90;;;;;;5033707;28;20388;-82
2022/05/23 00:27:47;;;;;;;12.98;3.53;;;13.70;99.90;;;;;;5034756;28;20041;-78
2022/05/23 00:30:22;;;;;;;8.30;2.78;;;13.80;99.90;;;;;;5034496;28;20045;-78
2022/05/23 00:35:36;;;;;;;8.07;3.30;;;13.90;99.90;;;;;;5017542;28;20049;-78
2022/05/23 00:38:04;;;;;;;10.15;2.90;;;13.90;99.90;;;;;;5033633;28;20057;-80
2022/05/23 00:44:07;;;;;;;9.48;2.67;;;14.00;99.90;;;;;;5013903;28;20053;-80
2022/05/23 00:46:53;;;;;;;9.13;2.90;;;14.00;99.90;;;;;;5033554;28;20054;-77
2022/05/23 00:49:28;;;;;;;10.05;2.90;;;13.90;99.90;;;;;;5017456;28;20042;-78
2022/05/23 00:52:01;;;;;;;11.35;3.40;;;14.00;99.90;;;;;;5000236;28;20061;-78
2022/05/23 00:54:38;;;;;;;10.52;3.00;;;13.90;99.90;;;;;;5034737;28;20045;-79
2022/05/23 00:57:13;;;;;;;14.30;3.10;;;13.90;99.90;;;;;;5034873;28;20049;-79
2022/05/23 00:59:42;;;;;;;11.88;3.33;;;13.90;99.90;;;;;;5033326;28;20306;-77
2022/05/23 01:02:12;;;;;;;9.70;3.03;;;13.80;99.90;;;;;;5019122;28;20050;-82
2022/05/23 01:04:41;;;;;;;11.07;3.30;;;13.80;99.90;;;;;;5020085;28;20368;-78
2022/05/23 01:07:10;;;;;;;12.05;3.45;;;13.70;99.90;;;;;;5021038;28;20045;-78
2022/05/23 01:09:38;;;;;;;10.68;3.35;;;13.70;99.90;;;;;;5004893;28;20045;-78
2022/05/23 01:12:06;;;;;;;10.38;3.28;;;13.60;99.90;;;;;;5019934;28;20046;-82
2022/05/23 01:14:50;;;;;;;11.10;3.28;;;13.60;99.90;;;;;;5038415;28;20045;-80
2022/05/23 01:17:18;;;;;;;9.43;3.08;;;13.60;99.90;;;;;;5005070;28;20480;-80
2022/05/23 01:19:46;;;;;;;12.25;3.58;;;13.50;99.90;;;;;;5019818;28;20046;-81
2022/05/23 01:22:23;;;;;;;8.27;3.30;;;13.50;99.90;;;;;;5038444;28;20054;-80
2022/05/23 01:25:06;;;;;;;12.35;4.15;;;13.50;99.90;;;;;;5019566;28;20052;-82
2022/05/23 01:27:34;;;;;;;10.98;3.03;;;13.50;99.90;;;;;;5020742;28;20041;-79
2022/05/23 01:30:02;;;;;;;7.47;3.45;;;13.50;99.90;;;;;;5020314;28;20380;-82
2022/05/23 01:32:33;;;;;;;12.05;3.45;;;13.50;99.90;;;;;;5056864;28;20052;-81
2022/05/23 01:35:00;;;;;;;9.68;3.30;;;13.50;99.90;;;;;;5057192;28;20045;-82
2022/05/23 01:37:28;;;;;;;9.00;3.30;;;13.50;99.90;;;;;;5056703;28;20049;-78
2022/05/23 01:40:08;;;;;;;10.93;3.38;;;13.40;99.90;;;;;;5056876;28;20377;-78
2022/05/23 01:42:44;;;;;;;9.38;3.10;;;13.40;99.90;;;;;;5056875;28;20052;-77
2022/05/23 01:45:15;;;;;;;8.80;3.10;;;13.40;99.90;;;;;;5055810;28;20053;-82
2022/05/23 01:47:43;;;;;;;10.65;3.35;;;13.40;99.90;;;;;;5040347;28;20486;-80
2022/05/23 01:50:11;;;;;;;10.88;3.55;;;13.40;99.90;;;;;;5040567;28;20471;-78
2022/05/23 01:52:47;;;;;;;12.27;3.28;;;13.40;99.90;;;;;;5055764;28;20049;-79
2022/05/23 01:55:19;;;;;;;11.65;3.38;;;13.40;99.90;;;;;;5056742;28;20495;-80
2022/05/23 01:58:07;;;;;;;9.45;3.17;;;13.40;99.90;;;;;;5056151;28;20056;-77
2022/05/23 02:03:25;;;;;;;10.02;3.33;;;13.40;99.90;;;;;;5040362;28;20049;-79
2022/05/23 02:05:57;;;;;;;12.35;3.50;;;13.40;99.90;;;;;;5055272;28;20455;-81
2022/05/23 02:08:24;;;;;;;7.65;3.20;;;13.40;99.90;;;;;;5057335;28;20045;-77
2022/05/23 02:10:53;;;;;;;11.63;3.15;;;13.40;99.90;;;;;;5056340;28;20049;-80
2022/05/23 02:13:32;;;;;;;11.20;3.58;;;13.50;99.90;;;;;;5055769;28;20044;-80
2022/05/23 02:16:00;;;;;;;9.75;3.25;;;13.50;99.90;;;;;;5057196;28;20049;-79
2022/05/23 02:18:42;;;;;;;9.90;3.25;;;13.50;99.90;;;;;;5055150;28;20053;-81
2022/05/23 02:21:10;;;;;;;10.70;2.95;;;13.60;99.90;;;;;;5056082;28;20044;-79
2022/05/23 02:23:40;;;;;;;8.27;3.20;;;13.60;99.90;;;;;;5056645;28;20064;-81
2022/05/23 02:26:08;;;;;;;9.60;3.08;;;13.60;99.90;;;;;;5054930;28;20041;-80
2022/05/23 02:28:48;;;;;;;9.57;2.95;;;13.70;99.90;;;;;;5056327;28;20040;-80
2022/05/23 02:31:24;;;;;;;11.75;3.50;;;13.70;99.90;;;;;;5054919;28;20052;-81
2022/05/23 02:34:11;;;;;;;10.82;3.20;;;13.70;99.90;;;;;;5055978;28;20037;-79
2022/05/23 02:36:44;;;;;;;10.77;3.00;;;13.80;99.90;;;;;;5039646;28;20053;-81
2022/05/23 02:39:14;;;;;;;10.43;3.03;;;13.80;99.90;;;;;;5055018;28;20045;-78
2022/05/23 02:41:44;;;;;;;11.13;3.53;;;13.80;99.90;;;;;;5039412;28;20467;-78
2022/05/23 02:44:15;;;;;;;12.88;2.88;;;13.70;99.90;;;;;;5055823;28;20037;-79
2022/05/23 02:46:44;;;;;;;9.38;3.15;;;13.70;99.90;;;;;;5054792;28;20052;-80
2022/05/23 02:49:16;;;;;;;11.07;3.28;;;13.70;99.90;;;;;;5056135;28;20063;-78
2022/05/23 02:51:46;;;;;;;11.73;3.40;;;13.70;99.90;;;;;;5038572;28;20048;-81
2022/05/23 02:54:14;;;;;;;7.78;3.03;;;13.70;99.90;;;;;;5055526;28;20048;-76
2022/05/23 02:56:49;;;;;;;10.45;2.90;;;13.70;99.90;;;;;;5056234;28;20048;-78
2022/05/23 02:59:22;;;;;;;13.85;3.15;;;13.70;99.90;;;;;;5054337;28;20052;-78
2022/05/23 03:04:46;;;;;;;7.60;2.85;;;13.70;99.90;;;;;;5054351;28;20045;-77
2022/05/23 03:07:16;;;;;;;8.07;2.90;;;13.70;99.90;;;;;;5056715;28;20447;-82
2022/05/23 03:09:54;;;;;;;10.48;3.17;;;13.70;99.90;;;;;;5055809;28;20045;-78
2022/05/23 03:12:21;;;;;;;12.20;3.42;;;13.80;99.90;;;;;;5054341;28;20130;-79
2022/05/23 03:14:49;;;;;;;9.02;3.17;;;13.80;99.90;;;;;;5055128;28;20048;-79
2022/05/23 03:17:17;;;;;;;8.70;2.97;;;13.80;99.90;;;;;;5055821;28;20056;-78
2022/05/23 03:19:46;;;;;;;12.32;3.42;;;13.80;99.90;;;;;;5053912;28;20048;-80
2022/05/23 03:27:49;;;;;;;9.32;2.25;;;13.80;99.90;;;;;;5054817;28;20467;-81
2022/05/23 03:30:30;;;;;;;11.48;3.08;;;13.80;99.90;;;;;;5054862;28;20072;-78
2022/05/23 03:32:59;;;;;;;8.00;2.20;;;13.80;99.90;;;;;;5053882;28;20033;-77
2022/05/23 03:35:29;;;;;;;10.60;2.55;;;13.80;99.90;;;;;;5054854;28;20044;-80
2022/05/23 03:37:58;;;;;;;10.43;2.60;;;13.80;99.90;;;;;;5037413;28;20048;-81
2022/05/23 03:40:26;;;;;;;10.60;2.28;;;13.80;99.90;;;;;;5054614;28;20060;-81
2022/05/23 03:42:57;;;;;;;8.70;2.55;;;13.90;99.90;;;;;;5055159;28;20041;-78
2022/05/23 03:45:26;;;;;;;12.50;2.40;;;13.90;99.90;;;;;;5053858;28;20049;-79
2022/05/23 03:47:55;;;;;;;10.73;2.80;;;14.00;99.90;;;;;;5037748;28;20059;-78
2022/05/23 03:50:28;;;;;;;9.05;2.50;;;14.00;99.90;;;;;;5054611;28;20045;-78
2022/05/23 03:53:01;;;;;;;9.65;2.40;;;14.00;99.90;;;;;;5037467;28;20452;-80
2022/05/23 03:55:32;;;;;;;8.05;2.55;;;14.10;99.90;;;;;;5054735;28;20048;-80
2022/05/23 03:58:27;;;;;;;11.65;2.63;;;14.10;99.90;;;;;;5051999;28;20407;-80
2022/05/23 04:01:17;;;;;;;13.65;3.25;;;14.10;99.90;;;;;;5054353;28;20068;-79
2022/05/23 04:03:50;;;;;;;13.13;3.30;;;14.10;99.90;;;;;;5054450;28;20056;-83
2022/05/23 04:06:19;;;;;;;14.63;3.17;;;14.10;99.90;;;;;;5053044;28;20048;-79
2022/05/23 04:08:55;;;;;;;12.95;3.15;;;13.90;99.90;;;;;;5054286;28;20479;-83
2022/05/23 04:11:23;;;;;;;;;;;13.80;99.90;;;;;;5037292;28;20452;-82
2022/05/23 04:13:58;;;;;;;13.38;3.20;;;13.60;99.90;;;;;;5039302;28;19921;-83
2022/05/23 04:16:29;;;;;;;14.50;3.75;;;13.60;99.90;;;;;;5038214;28;20387;-81
2022/05/23 04:18:57;;;;;;;10.85;3.10;;;13.50;99.90;;;;;;5052911;28;20372;-79
2022/05/23 04:21:26;;;;;;;11.68;3.17;;;13.40;99.90;;;;;;5037692;28;20357;-84
2022/05/23 04:23:55;;;;;;;11.27;3.42;;;13.40;99.90;;;;;;5053780;28;20049;-82
2022/05/23 04:26:23;;;;;;;15.85;4.45;;;13.30;99.90;;;;;;5052841;28;20045;-83
2022/05/23 04:28:51;;;;;;;15.70;3.80;;;13.30;99.90;;;;;;5054035;28;20056;-82
2022/05/23 04:31:19;;;;;;;11.38;3.67;;;13.30;99.90;;;;;;5049359;28;20300;-82
2022/05/23 04:37:02;;;;;;;11.93;3.78;;;13.20;99.90;;;;;;5053568;28;20049;-77
2022/05/23 04:39:42;;;;;;;15.68;4.45;;;13.20;99.90;;;;;;5052626;28;20044;-79
2022/05/23 04:42:10;;;;;;;13.32;3.58;;;13.20;99.90;;;;;;5053731;28;20045;-80
2022/05/23 04:44:39;;;;;;;13.02;3.78;;;13.30;99.90;;;;;;5052669;28;20199;-81
2022/05/23 04:49:54;;;;;;;14.73;4.18;;;13.30;99.90;;;;;;5054023;28;20052;-78
2022/05/23 04:52:36;;;;;;;13.38;4.18;;;13.30;99.90;;;;;;5053562;28;20048;-79
2022/05/23 04:55:05;;;;;;;17.75;3.92;;;13.30;99.90;;;;;;5053690;28;20375;-82
2022/05/23 04:57:33;;;;;;;;;;;13.40;99.90;;;;;;5053982;28;20059;-83
2022/05/23 05:00:06;;;;;;;14.65;3.60;;;13.40;99.90;;;;;;5052450;28;19921;-78
2022/05/23 05:02:40;;;;;;;13.25;4.05;;;13.40;99.90;;;;;;5038147;28;20049;-81
2022/05/23 05:05:09;;;;;;;10.57;3.60;;;13.50;99.90;;;;;;5036007;28;20068;-80
2022/05/23 05:07:50;;;;;;;16.25;4.45;;;13.50;99.90;;;;;;5053383;28;20068;-81
2022/05/23 05:10:23;;;;;;;13.25;4.40;;;13.60;99.90;;;;;;5054043;28;20044;-78
2022/05/23 05:12:51;;;;;;;13.07;3.72;;;13.60;99.90;;;;;;5052498;28;20048;-81
2022/05/23 05:15:23;;;;;;;10.98;3.78;;;13.60;99.90;;;;;;5037197;28;20041;-82
2022/05/23 05:17:55;;;;;;;10.68;3.90;;;13.70;99.90;;;;;;5036510;28;20044;-82
2022/05/23 05:20:25;;;;;;;8.93;3.92;;;13.70;99.90;;;;;;5053289;28;20052;-81
2022/05/23 05:22:58;;;;;;;11.18;4.20;;;13.70;99.90;;;;;;5054241;28;20045;-79
2022/05/23 05:25:44;;;;;;;13.07;3.95;;;13.70;99.90;;;;;;5053361;28;20060;-81
2022/05/23 05:28:17;;;;;;;9.02;3.90;;;13.80;99.90;;;;;;5036888;28;20060;-79
2022/05/23 05:31:01;;;;;;;9.88;3.88;;;13.80;99.90;;;;;;5053062;28;20049;-79
2022/05/23 05:33:36;;;;;;;14.02;3.40;;;13.90;99.90;;;;;;5053637;28;20049;-80
2022/05/23 05:36:17;;;;;;;12.23;3.47;;;13.90;99.90;;;;;;5053596;28;20345;-77
2022/05/23 05:39:07;;;;;;;10.07;2.80;;;14.00;99.90;;;;;;5052171;28;20045;-79
2022/05/23 05:41:41;;;;;;;12.32;3.75;;;14.00;99.90;;;;;;5053241;28;20049;-79
2022/05/23 05:44:14;;;;;;;10.13;3.45;;;14.00;99.90;;;;;;5037099;28;20045;-80
2022/05/23 05:47:00;;;;;;;8.10;3.72;;;14.10;99.90;;;;;;5052800;28;20388;-78
2022/05/23 05:49:53;;;;;;;11.90;3.47;;;14.10;99.90;;;;;;5055496;28;20369;-77
2022/05/23 05:52:26;;;;;;;10.60;3.83;;;14.10;99.90;;;;;;5056901;28;20048;-77
2022/05/23 05:55:02;;;;;;;5.63;2.55;;;14.10;99.90;;;;;;5056737;28;20108;-78
2022/05/23 05:57:30;;;;;;;6.50;2.33;;;14.20;99.90;;;;;;5056926;28;20467;-79
2022/05/23 06:00:05;;;;;;;9.07;2.50;;;14.20;99.90;;;;;;5055743;28;20468;-79
2022/05/23 06:02:44;;;;;;;9.20;2.50;;;14.10;99.90;;;;;;5057685;28;20041;-78
2022/05/23 06:05:17;;;;;;;10.40;2.40;;;14.00;99.90;;;;;;5056592;28;20378;-77
2022/05/23 06:14:00;;;;;;;9.57;2.63;;;13.90;99.90;;;;;;5056879;28;20475;-77
2022/05/23 06:16:38;;;;;;;5.75;2.10;;;13.90;99.90;;;;;;5056877;28;20040;-81
2022/05/23 06:19:44;;;;;;;11.32;2.38;;;13.90;99.90;;;;;;5051506;28;20479;-76
2022/05/23 06:22:21;;;;;;;6.82;2.50;;;13.80;99.90;;;;;;5056794;28;20032;-78
2022/05/23 06:25:08;;;;;;;10.15;2.30;;;13.80;99.90;;;;;;5041400;28;20048;-78
2022/05/23 06:27:38;;;;;;;8.77;2.35;;;13.90;99.90;;;;;;5056033;28;20049;-78
2022/05/23 06:30:10;;;;;;;7.25;2.20;;;13.90;99.90;;;;;;5055796;28;20044;-78
2022/05/23 06:32:50;;;;;;;11.10;2.35;;;13.80;99.90;;;;;;5055035;28;20045;-80
2022/05/23 06:35:23;;;;;;;6.60;2.33;;;13.80;99.90;;;;;;5055848;28;20048;-78
2022/05/23 06:37:54;;;;;;;8.77;2.33;;;13.80;99.90;;;;;;5055365;28;20044;-81
2022/05/23 06:40:48;;;;;;;9.45;2.28;;;13.90;99.90;;;;;;5028436;28;20057;-77
2022/05/23 06:43:29;;;;;;;10.40;2.50;;;14.00;99.90;;;;;;5055903;28;20391;-75
2022/05/23 06:46:17;;;;;;;6.25;1.60;;;14.00;99.90;;;;;;5055157;28;20045;-77
2022/05/23 06:49:06;;;;;;;7.35;1.77;;;14.10;99.90;;;;;;5056308;28;20059;-80
2022/05/23 06:52:09;;;;;;;7.05;2.13;;;14.20;99.90;;;;;;5045542;28;20056;-78
2022/05/23 06:54:48;;;;;;;5.70;1.85;;;14.20;99.90;;;;;;5055374;28;20051;-81
2022/05/23 06:57:19;;;;;;;6.72;2.17;;;14.30;99.90;;;;;;5055265;28;20037;-80
2022/05/23 06:59:49;;;;;;;6.13;2.25;;;14.30;99.90;;;;;;5053574;28;20037;-85
2022/05/23 07:02:17;;;;;;;7.25;2.20;;;14.30;99.90;;;;;;5055075;28;20371;-82
2022/05/23 07:13:34;;;;;;;6.32;2.25;;;14.50;99.90;;;;;;5054688;28;20055;-84
2022/05/23 07:16:02;;;;;;;7.68;2.67;;;14.60;99.90;;;;;;5055233;28;20059;-80
2022/05/23 07:18:31;;;;;;;7.50;2.88;;;14.60;99.90;;;;;;5053768;28;20052;-82
2022/05/23 07:21:00;;;;;;;6.63;2.65;;;14.70;99.90;;;;;;5054735;28;20040;-80
2022/05/23 07:23:30;;;;;;;6.22;2.65;;;14.80;99.90;;;;;;5054855;28;20053;-83
2022/05/23 07:26:10;;;;;;;8.32;3.08;;;14.90;99.90;;;;;;5038691;28;20049;-81
2022/05/23 07:28:50;;;;;;;9.55;3.00;;;15.00;99.90;;;;;;5054374;28;20041;-81
2022/05/23 07:31:23;;;;;;;7.63;2.47;;;15.00;99.90;;;;;;5053272;28;20049;-81
2022/05/23 07:33:51;;;;;;;8.50;3.17;;;15.10;99.90;;;;;;5044664;28;20044;-83
2022/05/23 07:36:20;;;;;;;6.38;3.05;;;15.20;99.90;;;;;;5045106;28;20049;-81
2022/05/23 07:38:50;;;;;;;8.75;3.33;;;15.20;99.90;;;;;;5045156;28;20042;-79
2022/05/23 07:41:56;;;;;;;10.95;3.15;;;15.20;99.90;;;;;;4972809;28;20062;-78
2022/05/23 07:44:29;;;;;;;8.45;2.92;;;15.30;99.90;;;;;;5025083;28;20060;-78
2022/05/23 07:47:06;;;;;;;5.35;2.95;;;15.40;99.90;;;;;;5026527;28;20052;-80
2022/05/23 07:49:35;;;;;;;10.05;2.97;;;15.40;99.90;;;;;;5045724;28;20041;-83
2022/05/23 07:52:14;;;;;;;8.55;3.20;;;15.40;99.90;;;;;;5042555;28;20053;-81
2022/05/23 08:00:41;;;;;;;8.00;3.38;;;15.60;99.90;;;;;;5045551;28;20045;-83
2022/05/23 08:03:18;;;;;;;8.02;3.50;;;15.70;99.90;;;;;;5042202;28;20048;-77
2022/05/23 08:05:56;;;;;;;6.72;3.15;;;15.80;99.90;;;;;;5027366;28;20049;-81
2022/05/23 08:08:24;;;;;;;15.70;4.00;;;15.80;99.90;;;;;;5044695;28;20052;-80
2022/05/23 08:10:52;;;;;;;;;;;15.80;99.90;;;;;;5043107;28;20061;-77
2022/05/23 08:13:19;;;;;;;13.27;3.88;;;15.90;99.90;;;;;;5042115;28;20432;-81
2022/05/23 08:15:47;;;;;;;10.32;4.05;;;15.90;99.90;;;;;;5044935;28;20363;-80
2022/05/23 08:18:18;;;;;;;12.43;4.32;;;16.00;99.90;;;;;;5050188;28;20053;-84
2022/05/23 08:20:55;;;;;;;;;;;16.10;99.90;;;;;;5034530;28;20465;-81
2022/05/23 08:23:29;;;;;;;7.80;3.90;;;16.30;99.90;;;;;;5034160;28;19921;-81
2022/05/23 08:26:25;;;;;;;9.88;4.28;;;16.40;99.90;;;;;;5030890;28;20057;-82
2022/05/23 08:28:53;;;;;;;8.52;4.15;;;16.50;99.90;;;;;;5034132;28;20041;-81
2022/05/23 08:31:26;;;;;;;9.98;4.22;;;16.60;99.90;;;;;;5032513;28;20053;-81
2022/05/23 08:34:15;;;;;;;8.48;4.53;;;16.70;99.90;;;;;;5033411;28;20144;-79
2022/05/23 08:36:43;;;;;;;7.60;4.03;;;16.80;99.90;;;;;;5034063;28;20364;-82
2022/05/23 08:39:12;;;;;;;10.40;4.28;;;16.90;99.90;;;;;;5033295;28;20046;-83
2022/05/23 08:41:55;;;;;;;9.20;4.38;;;17.10;99.90;;;;;;5033856;28;20056;-80
2022/05/23 08:45:23;;;;;;;12.63;4.45;;;17.40;99.90;;;;;;4997774;28;20062;-84
2022/05/23 08:48:18;;;;;;;9.60;4.68;;;17.60;99.90;;;;;;5028279;28;20062;-80
2022/05/23 08:51:06;;;;;;;11.50;4.88;;;17.90;99.90;;;;;;5033903;28;20042;-81
2022/05/23 08:54:07;;;;;;;11.65;5.05;;;18.10;99.90;;;;;;5029876;28;20049;-81
2022/05/23 08:56:53;;;;;;;10.35;4.70;;;18.20;99.90;;;;;;5032866;28;20052;-78
2022/05/23 08:59:38;;;;;;;10.02;5.05;;;18.20;99.90;;;;;;5016229;28;20046;-81
2022/05/23 09:02:21;;;;;;;11.70;5.00;;;18.20;99.90;;;;;;5032849;28;20048;-81
2022/05/23 09:05:18;;;;;;;11.60;5.32;;;18.30;99.90;;;;;;4999568;28;20065;-80
2022/05/23 09:08:08;;;;;;;11.43;4.80;;;18.40;99.90;;;;;;5034474;28;20353;-79
2022/05/23 09:10:49;;;;;;;9.57;4.80;;;18.60;99.90;;;;;;5033374;28;20045;-82
2022/05/23 09:13:17;;;;;;;13.68;4.82;;;18.70;99.90;;;;;;5015320;28;20384;-80
2022/05/23 09:15:46;;;;;;;;;;;18.80;99.90;;;;;;5033995;28;20064;-82
2022/05/23 09:18:20;;;;;;;9.60;4.90;;;19.00;99.90;;;;;;5032299;28;19921;-78
2022/05/23 09:20:51;;;;;;;11.50;5.10;;;19.30;99.90;;;;;;5034209;28;20384;-80
2022/05/23 09:23:25;;;;;;;14.07;5.30;;;19.30;99.90;;;;;;5035980;28;20045;-81
2022/05/23 09:26:02;;;;;;;11.30;5.10;;;19.30;99.90;;;;;;5037020;28;20469;-82
2022/05/23 09:28:37;;;;;;;13.20;5.20;;;19.40;99.90;;;;;;5037137;28;20053;-82
2022/05/23 09:31:24;;;;;;;10.55;4.55;;;19.30;99.90;;;;;;5027063;28;20042;-82
2022/05/23 09:33:54;;;;;;;12.05;5.63;;;19.50;99.90;;;;;;5001291;28;20046;-79
2022/05/23 09:36:33;;;;;;;13.18;5.65;;;19.60;99.90;;;;;;5018088;28;20050;-79
2022/05/23 09:39:21;;;;;;;12.32;5.70;;;19.70;99.90;;;;;;5017038;28;20050;-83
2022/05/23 09:48:08;;;;;;;11.98;5.40;;;20.00;99.90;;;;;;4958023;29;20062;-81
2022/05/23 09:50:40;;;;;;;14.98;6.05;;;20.10;99.90;;;;;;4985360;28;20356;-81
2022/05/23 09:53:33;;;;;;;12.63;6.10;;;20.10;99.90;;;;;;4999778;28;20144;-83
2022/05/23 09:56:40;;;;;;;10.65;5.50;;;20.20;99.90;;;;;;5011367;28;20061;-82
2022/05/23 09:59:40;;;;;;;11.63;5.47;;;20.10;99.90;;;;;;5016702;28;20373;-81
2022/05/23 10:02:30;;;;;;;13.38;5.65;;;20.10;99.90;;;;;;5006816;28;20054;-81
2022/05/23 10:04:58;;;;;;;14.88;6.07;;;20.10;99.90;;;;;;5016801;28;20046;-82
2022/05/23 10:07:37;;;;;;;;;;;20.10;99.90;;;;;;5017997;28;20050;-82
2022/05/23 10:10:20;;;;;;;11.93;5.82;;;20.10;99.90;;;;;;5000194;28;19932;-81
2022/05/23 10:13:23;;;;;;;12.63;5.90;;;20.30;99.90;;;;;;5016597;28;20050;-81
2022/05/23 10:15:55;;;;;;;14.77;6.28;;;20.30;99.90;;;;;;5017684;28;20049;-78
2022/05/23 10:18:24;;;;;;;16.17;5.95;;;20.20;99.90;;;;;;5016390;28;20046;-81
2022/05/23 10:20:56;;;;;;;13.85;5.90;;;20.20;99.90;;;;;;5017363;28;20460;-82
2022/05/23 10:23:28;;;;;;;13.45;5.72;;;20.30;99.90;;;;;;5017809;28;20491;-82
2022/05/23 10:26:19;;;;;;;12.32;5.55;;;20.30;99.90;;;;;;4999321;28;20472;-81
2022/05/23 10:29:06;;;;;;;10.90;5.90;;;20.30;99.90;;;;;;5017312;28;20057;-82
2022/05/23 10:31:45;;;;;;;13.88;5.95;;;20.20;99.90;;;;;;5015927;28;20046;-79
2022/05/23 10:34:42;;;;;;;8.05;5.05;;;20.20;99.90;;;;;;5016678;28;20058;-78
2022/05/23 10:37:21;;;;;;;14.63;5.25;;;20.00;99.90;;;;;;5000171;28;20060;-81
2022/05/23 10:42:52;;;;;;;11.52;5.05;;;19.90;99.90;;;;;;5016940;28;20061;-79
2022/05/23 10:45:33;;;;;;;11.63;4.85;;;20.00;99.90;;;;;;4998477;28;20049;-78
2022/05/23 10:48:16;;;;;;;11.18;5.30;;;20.10;99.90;;;;;;5017268;28;20037;-83
2022/05/23 10:51:00;;;;;;;9.15;5.03;;;20.10;99.90;;;;;;5016837;28;20376;-81
2022/05/23 10:54:00;;;;;;;11.40;5.40;;;20.00;99.90;;;;;;4999839;28;20046;-83
2022/05/23 10:56:37;;;;;;;9.82;5.50;;;19.90;99.90;;;;;;4999500;28;20042;-82
2022/05/23 10:59:37;;;;;;;11.10;5.45;;;19.80;99.90;;;;;;5015848;28;20369;-84
2022/05/23 11:02:26;;;;;;;12.90;6.30;;;19.50;99.90;;;;;;4996583;28;20074;-83
2022/05/23 11:05:11;;;;;;;13.45;5.75;;;19.30;99.90;;;;;;4998529;28;20056;-82
2022/05/23 11:07:44;;;;;;;10.00;5.07;;;19.00;99.90;;;;;;5016844;28;20058;-82
2022/05/23 11:10:41;;;;;;;11.30;4.75;;;18.80;99.90;;;;;;5016505;28;20042;-81
2022/05/23 11:13:28;;;;;;;9.23;5.15;;;18.60;99.90;;;;;;5015427;28;20054;-82
2022/05/23 11:16:12;;;;;;;12.70;4.67;;;18.40;99.90;;;;;;4999552;28;20045;-80
2022/05/23 11:19:07;;;;;;;9.25;3.60;;;18.30;99.90;;;;;;4981734;28;20045;-81
2022/05/23 11:21:41;;;;;;;7.65;3.95;;;18.20;99.90;;;;;;5016424;28;20350;-81
2022/05/23 11:24:18;;;;;;;14.80;4.47;;;18.10;99.90;;;;;;5016440;28;20365;-84
2022/05/23 11:35:43;;;;;;;13.05;4.82;;;17.50;99.90;;;;;;5015975;28;20050;-82
2022/05/23 11:38:11;;;;;;;11.80;4.72;;;17.40;99.90;;;;;;4998110;28;20484;-81
2022/05/23 11:40:58;;;;;;;10.68;5.00;;;17.20;99.90;;;;;;4983237;28;20469;-80
2022/05/23 11:43:27;;;;;;;11.52;5.13;;;17.00;99.90;;;;;;4998363;28;20045;-82
2022/05/23 11:46:05;;;;;;;14.30;5.60;;;16.80;99.90;;;;;;4996653;28;20060;-78
2022/05/23 11:48:42;;;;;;;11.95;5.28;;;16.70;99.90;;;;;;4998430;28;20049;-78
2022/05/23 11:51:36;;;;;;;18.00;5.53;;;16.50;99.90;;;;;;4997323;28;20049;-87
2022/05/23 11:54:13;;;;;;;13.85;5.45;;;16.50;99.90;;;;;;5015091;28;20057;-81
2022/05/23 11:57:16;;;;;;;10.13;5.47;;;16.40;99.90;;;;;;4998082;28;20118;-83
2022/05/23 11:59:43;;;;;;;12.23;5.65;;;16.40;99.90;;;;;;4980797;28;20050;-83
2022/05/23 12:02:11;;;;;;;12.55;5.93;;;16.50;99.90;;;;;;5015050;28;20045;-85
2022/05/23 12:04:48;;;;;;;;;;;16.60;99.90;;;;;;5014400;28;20054;-82
2022/05/23 12:07:31;;;;;;;10.50;5.53;;;16.70;99.90;;;;;;4981914;28;19921;-82
2022/05/23 12:10:25;;;;;;;13.02;6.00;;;16.80;99.90;;;;;;5014786;28;20050;-84
2022/05/23 12:13:36;;;;;;;12.07;6.00;;;16.90;99.90;;;;;;5014193;28;20041;-84
2022/05/23 12:16:30;;;;;;;13.75;5.20;;;17.00;99.90;;;;;;5015093;28;20042;-79
2022/05/23 12:19:36;;;;;;;12.98;5.75;;;17.10;99.90;;;;;;4996823;28;20052;-82
2022/05/23 12:22:58;;;;;;;11.65;5.63;;;17.10;99.90;;;;;;4997672;28;20345;-83
2022/05/23 12:25:27;;;;;;;12.13;6.10;;;17.10;99.90;;;;;;4974952;28;20058;-87
2022/05/23 12:28:17;;;;;;;14.48;6.18;;;17.10;99.90;;;;;;4998486;28;20050;-87
2022/05/23 12:31:21;;;;;;;13.40;6.40;;;17.20;99.90;;;;;;4990383;28;20045;-88
2022/05/23 12:34:07;;;;;;;14.13;6.17;;;17.10;99.90;;;;;;5032969;28;20062;-88
2022/05/23 12:36:50;;;;;;;14.77;6.30;;;16.90;99.90;;;;;;5033372;28;20283;-86
2022/05/23 12:39:41;;;;;;;10.93;5.68;;;16.60;99.90;;;;;;5032012;28;20353;-87
2022/05/23 12:42:21;;;;;;;14.00;6.30;;;16.40;99.90;;;;;;5016228;28;20045;-87
2022/05/23 12:45:15;;;;;;;14.95;7.13;;;16.30;99.90;;;;;;5032208;28;20068;-86
2022/05/23 12:48:17;;;;;;;15.55;7.93;;;16.20;99.90;;;;;;5034608;28;20388;-89
2022/05/23 12:55:09;;;;;;;;;;;;;;;;;;;;;
2022/05/23 12:57:58;;;;;;;13.63;7.72;;;15.90;99.90;;;;;;5034434;28;20049;-78
2022/05/23 13:00:55;;;;;;;15.70;7.70;;;15.90;99.90;;;;;;5037355;28;20381;-84
2022/05/23 13:03:49;;;;;;;21.08;8.10;;;15.90;99.90;;;;;;5037554;28;20467;-78
2022/05/23 13:07:01;;;;;;;13.88;8.15;;;15.60;99.90;;;;;;5037245;28;20041;-76
2022/05/23 13:09:44;;;;;;;20.30;9.25;;;15.80;99.90;;;;;;4961484;28;20486;-79
2022/05/23 13:12:36;;;;;;;20.15;8.98;;;15.80;99.90;;;;;;5035812;28;19932;-79
2022/05/23 13:15:20;;;;;;;18.95;8.40;;;15.70;99.90;;;;;;5047878;28;20049;-81
2022/05/23 13:17:48;;;;;;;17.77;7.57;;;15.60;99.90;;;;;;5050613;28;20045;-77
2022/05/23 13:23:21;;;;;;;16.98;7.47;;;15.30;99.90;;;;;;5041007;28;20056;-78
2022/05/23 13:25:49;;;;;;;18.83;6.70;;;15.10;99.90;;;;;;5035702;28;20049;-79
2022/05/23 13:28:19;;;;;;;22.95;6.75;;;15.00;99.90;;;;;;5053686;28;20072;-77
2022/05/23 13:30:51;;;;;;;18.33;6.47;;;14.90;99.90;;;;;;5039501;28;20049;-76
2022/05/23 13:33:30;;;;;;;17.40;7.25;;;14.80;99.90;;;;;;5011504;28;20050;-77
2022/05/23 13:36:00;;;;;;;17.58;5.68;;;14.70;99.90;;;;;;5000999;28;20046;-74
2022/05/23 13:38:34;;;;;;;16.45;6.15;;;14.50;99.90;;;;;;5016103;28;20053;-73
2022/05/23 13:41:04;;;;;;;17.88;6.95;;;14.40;99.90;;;;;;5016204;28;20050;-75
2022/05/23 13:43:45;;;;;;;25.67;8.25;;;14.30;99.90;;;;;;5022893;28;20052;-85
2022/05/23 13:46:27;;;;;;;19.42;7.75;;;14.20;99.90;;;;;;5000601;28;20499;-85
2022/05/23 13:49:28;;;;;;;16.50;7.63;;;14.20;99.90;;;;;;5017601;28;20064;-80
2022/05/23 13:52:06;;;;;;;25.05;7.80;;;14.30;99.90;;;;;;5035226;28;20484;-77
2022/05/23 13:54:47;;;;;;;19.38;7.00;;;14.30;99.90;;;;;;5037511;28;20045;-78
2022/05/23 13:57:25;;;;;;;16.10;7.18;;;14.20;99.90;;;;;;5019784;28;20045;-86
2022/05/23 14:00:06;;;;;;;14.48;6.03;;;14.20;99.90;;;;;;4999701;28;20061;-88
2022/05/23 14:02:49;;;;;;;20.15;7.68;;;14.20;99.90;;;;;;4985558;28;20060;-86
2022/05/23 14:05:20;;;;;;;22.85;8.15;;;14.30;99.90;;;;;;5000923;28;20050;-86
2022/05/23 14:07:52;;;;;;;21.80;7.78;;;14.40;99.90;;;;;;4994130;28;20052;-86
2022/05/23 14:10:26;;;;;;;21.20;8.30;;;14.50;99.90;;;;;;5005901;28;20080;-91
2022/05/23 14:12:58;;;;;;;18.25;8.95;;;14.60;99.90;;;;;;5037184;28;20053;-81
2022/05/23 14:15:28;;;;;;;16.73;8.50;;;14.80;99.90;;;;;;5019950;28;20045;-77
2022/05/23 14:17:58;;;;;;;20.45;9.35;;;14.90;99.90;;;;;;5017012;28;20049;-78
2022/05/23 14:20:41;;;;;;;24.73;8.25;;;15.20;99.90;;;;;;5037118;28;20045;-81
2022/05/23 14:23:11;;;;;;;23.08;8.18;;;15.40;99.90;;;;;;5019105;28;20054;-77
2022/05/23 14:25:41;;;;;;;21.73;7.88;;;15.60;99.90;;;;;;5035393;28;20064;-77
2022/05/23 14:28:29;;;;;;;17.58;8.15;;;15.60;99.90;;;;;;5003131;28;20045;-76
2022/05/23 14:31:01;;;;;;;15.20;8.27;;;15.70;99.90;;;;;;5038656;28;20475;-78
2022/05/23 14:33:42;;;;;;;15.90;6.90;;;15.80;99.90;;;;;;5036811;28;20041;-76
2022/05/23 14:36:10;;;;;;;17.58;7.60;;;16.10;99.90;;;;;;5036649;28;20068;-77
2022/05/23 14:38:52;;;;;;;15.85;6.82;;;16.40;99.90;;;;;;5035411;28;20349;-76
2022/05/23 14:41:22;;;;;;;15.52;6.10;;;16.50;99.90;;;;;;5036302;28;20357;-76
2022/05/23 14:44:22;;;;;;;17.17;6.70;;;16.80;99.90;;;;;;5036405;28;20056;-76